sensor_id;sensor_type;location;lat;lon;timestamp;P1;durP1;ratioP1;P2;durP2;ratioP2
14040;SDS011;7095;51.388;6.196;2023-01-04T00:00:33;7.13;;;2.20;;
14040;SDS011;7095;51.388;6.196;2023-01-04T00:03:02;11.87;;;2.50;;
14040;SDS011;7095;51.388;6.196;2023-01-04T00:05:31;6.77;;;1.93;;
14040;SDS011;7095;51.388;6.196;2023-01-04T00:08:02;9.33;;;2.53;;
14040;SDS011;7095;51.388;6.196;2023-01-04T00:10:31;8.00;;;1.83;;
14040;SDS011;7095;51.388;6.196;2023-01-04T00:12:59;4.77;;;1.93;;
14040;SDS011;7095;51.388;6.196;2023-01-04T00:15:29;7.70;;;2.23;;
14040;SDS011;7095;51.388;6.196;2023-01-04T00:17:58;9.60;;;2.37;;
14040;SDS011;7095;51.388;6.196;2023-01-04T00:20:26;4.77;;;1.60;;
14040;SDS011;7095;51.388;6.196;2023-01-04T00:22:54;8.40;;;1.90;;
14040;SDS011;7095;51.388;6.196;2023-01-04T00:25:23;5.57;;;2.13;;
14040;SDS011;7095;51.388;6.196;2023-01-04T00:27:52;8.23;;;2.27;;
14040;SDS011;7095;51.388;6.196;2023-01-04T00:30:20;4.00;;;1.93;;
14040;SDS011;7095;51.388;6.196;2023-01-04T00:32:51;11.57;;;2.60;;
14040;SDS011;7095;51.388;6.196;2023-01-04T00:35:19;14.60;;;2.60;;
14040;SDS011;7095;51.388;6.196;2023-01-04T00:38:08;7.37;;;2.07;;
14040;SDS011;7095;51.388;6.196;2023-01-04T00:40:36;9.67;;;2.00;;
14040;SDS011;7095;51.388;6.196;2023-01-04T00:43:05;7.67;;;1.97;;
14040;SDS011;7095;51.388;6.196;2023-01-04T00:45:33;8.80;;;2.00;;
14040;SDS011;7095;51.388;6.196;2023-01-04T00:48:03;7.03;;;2.20;;
14040;SDS011;7095;51.388;6.196;2023-01-04T00:50:32;10.10;;;2.23;;
14040;SDS011;7095;51.388;6.196;2023-01-04T00:53:01;4.57;;;2.00;;
14040;SDS011;7095;51.388;6.196;2023-01-04T00:55:29;9.07;;;2.97;;
14040;SDS011;7095;51.388;6.196;2023-01-04T00:57:58;6.30;;;1.97;;
14040;SDS011;7095;51.388;6.196;2023-01-04T01:00:26;10.50;;;2.87;;
14040;SDS011;7095;51.388;6.196;2023-01-04T01:02:55;9.33;;;2.33;;
14040;SDS011;7095;51.388;6.196;2023-01-04T01:05:28;7.60;;;2.00;;
14040;SDS011;7095;51.388;6.196;2023-01-04T01:07:57;5.93;;;2.20;;
14040;SDS011;7095;51.388;6.196;2023-01-04T01:10:46;5.80;;;2.03;;
14040;SDS011;7095;51.388;6.196;2023-01-04T01:13:15;7.80;;;1.60;;
14040;SDS011;7095;51.388;6.196;2023-01-04T01:15:44;6.63;;;1.93;;
14040;SDS011;7095;51.388;6.196;2023-01-04T01:18:13;9.87;;;1.90;;
14040;SDS011;7095;51.388;6.196;2023-01-04T01:20:43;10.77;;;2.67;;
14040;SDS011;7095;51.388;6.196;2023-01-04T01:23:12;11.00;;;2.50;;
14040;SDS011;7095;51.388;6.196;2023-01-04T01:25:42;11.10;;;2.87;;
14040;SDS011;7095;51.388;6.196;2023-01-04T01:28:12;7.47;;;2.30;;
14040;SDS011;7095;51.388;6.196;2023-01-04T01:30:41;9.67;;;2.20;;
14040;SDS011;7095;51.388;6.196;2023-01-04T01:33:10;9.13;;;2.33;;
14040;SDS011;7095;51.388;6.196;2023-01-04T01:35:38;7.37;;;1.93;;
14040;SDS011;7095;51.388;6.196;2023-01-04T01:38:08;6.17;;;2.10;;
14040;SDS011;7095;51.388;6.196;2023-01-04T01:40:39;7.40;;;1.70;;
14040;SDS011;7095;51.388;6.196;2023-01-04T01:43:13;5.20;;;2.07;;
14040;SDS011;7095;51.388;6.196;2023-01-04T01:45:45;7.20;;;2.60;;
14040;SDS011;7095;51.388;6.196;2023-01-04T01:48:17;11.27;;;2.67;;
14040;SDS011;7095;51.388;6.196;2023-01-04T01:50:51;7.53;;;2.30;;
14040;SDS011;7095;51.388;6.196;2023-01-04T01:53:25;8.47;;;2.13;;
14040;SDS011;7095;51.388;6.196;2023-01-04T01:55:55;9.10;;;2.80;;
14040;SDS011;7095;51.388;6.196;2023-01-04T01:58:27;8.70;;;2.90;;
14040;SDS011;7095;51.388;6.196;2023-01-04T02:01:01;7.83;;;2.30;;
14040;SDS011;7095;51.388;6.196;2023-01-04T02:03:31;7.07;;;2.40;;
14040;SDS011;7095;51.388;6.196;2023-01-04T02:06:03;6.20;;;1.83;;
14040;SDS011;7095;51.388;6.196;2023-01-04T02:08:35;6.40;;;2.23;;
14040;SDS011;7095;51.388;6.196;2023-01-04T02:11:05;9.60;;;2.47;;
14040;SDS011;7095;51.388;6.196;2023-01-04T02:13:33;10.33;;;2.17;;
14040;SDS011;7095;51.388;6.196;2023-01-04T02:16:24;10.93;;;2.50;;
14040;SDS011;7095;51.388;6.196;2023-01-04T02:19:01;8.20;;;1.90;;
14040;SDS011;7095;51.388;6.196;2023-01-04T02:21:44;5.87;;;2.00;;
14040;SDS011;7095;51.388;6.196;2023-01-04T02:24:31;4.63;;;2.50;;
14040;SDS011;7095;51.388;6.196;2023-01-04T02:27:20;7.83;;;2.00;;
14040;SDS011;7095;51.388;6.196;2023-01-04T02:30:14;3.40;;;1.80;;
14040;SDS011;7095;51.388;6.196;2023-01-04T02:33:04;4.70;;;1.80;;
14040;SDS011;7095;51.388;6.196;2023-01-04T02:35:44;4.87;;;1.80;;
14040;SDS011;7095;51.388;6.196;2023-01-04T02:38:21;7.73;;;2.10;;
14040;SDS011;7095;51.388;6.196;2023-01-04T02:40:55;7.97;;;1.50;;
14040;SDS011;7095;51.388;6.196;2023-01-04T02:43:34;4.87;;;1.80;;
14040;SDS011;7095;51.388;6.196;2023-01-04T02:46:29;3.97;;;1.30;;
14040;SDS011;7095;51.388;6.196;2023-01-04T02:49:03;2.43;;;1.47;;
14040;SDS011;7095;51.388;6.196;2023-01-04T02:51:50;2.50;;;1.33;;
14040;SDS011;7095;51.388;6.196;2023-01-04T02:54:20;12.47;;;1.40;;
14040;SDS011;7095;51.388;6.196;2023-01-04T02:57:04;1.43;;;1.20;;
14040;SDS011;7095;51.388;6.196;2023-01-04T02:59:52;5.20;;;1.60;;
14040;SDS011;7095;51.388;6.196;2023-01-04T03:02:41;1.67;;;1.20;;
14040;SDS011;7095;51.388;6.196;2023-01-04T03:05:42;2.13;;;1.17;;
14040;SDS011;7095;51.388;6.196;2023-01-04T03:08:42;2.23;;;0.80;;
14040;SDS011;7095;51.388;6.196;2023-01-04T03:11:21;5.30;;;1.43;;
14040;SDS011;7095;51.388;6.196;2023-01-04T03:14:13;1.23;;;0.87;;
14040;SDS011;7095;51.388;6.196;2023-01-04T03:16:59;2.57;;;0.93;;
14040;SDS011;7095;51.388;6.196;2023-01-04T03:19:31;7.87;;;1.73;;
14040;SDS011;7095;51.388;6.196;2023-01-04T03:22:24;2.37;;;1.07;;
14040;SDS011;7095;51.388;6.196;2023-01-04T03:25:13;2.43;;;0.93;;
14040;SDS011;7095;51.388;6.196;2023-01-04T03:28:03;1.90;;;0.93;;
14040;SDS011;7095;51.388;6.196;2023-01-04T03:30:53;2.03;;;0.80;;
14040;SDS011;7095;51.388;6.196;2023-01-04T03:33:46;1.90;;;0.70;;
14040;SDS011;7095;51.388;6.196;2023-01-04T03:36:36;3.37;;;0.70;;
14040;SDS011;7095;51.388;6.196;2023-01-04T03:39:17;5.70;;;0.60;;
14040;SDS011;7095;51.388;6.196;2023-01-04T03:42:09;2.93;;;0.80;;
14040;SDS011;7095;51.388;6.196;2023-01-04T03:45:05;4.30;;;0.80;;
14040;SDS011;7095;51.388;6.196;2023-01-04T03:47:59;2.70;;;0.80;;
14040;SDS011;7095;51.388;6.196;2023-01-04T03:50:54;1.37;;;0.70;;
14040;SDS011;7095;51.388;6.196;2023-01-04T03:53:30;0.97;;;0.70;;
14040;SDS011;7095;51.388;6.196;2023-01-04T03:56:04;1.23;;;0.80;;
14040;SDS011;7095;51.388;6.196;2023-01-04T03:58:36;1.13;;;0.57;;
14040;SDS011;7095;51.388;6.196;2023-01-04T04:01:05;0.87;;;0.83;;
14040;SDS011;7095;51.388;6.196;2023-01-04T04:03:34;2.97;;;1.10;;
14040;SDS011;7095;51.388;6.196;2023-01-04T04:06:20;0.87;;;0.73;;
14040;SDS011;7095;51.388;6.196;2023-01-04T04:09:06;1.23;;;0.70;;
14040;SDS011;7095;51.388;6.196;2023-01-04T04:11:36;1.80;;;0.67;;
14040;SDS011;7095;51.388;6.196;2023-01-04T04:14:05;0.97;;;0.70;;
14040;SDS011;7095;51.388;6.196;2023-01-04T04:16:33;2.10;;;0.67;;
14040;SDS011;7095;51.388;6.196;2023-01-04T04:19:02;0.73;;;0.57;;
14040;SDS011;7095;51.388;6.196;2023-01-04T04:21:34;1.93;;;0.77;;
14040;SDS011;7095;51.388;6.196;2023-01-04T04:24:04;1.53;;;0.70;;
14040;SDS011;7095;51.388;6.196;2023-01-04T04:26:33;0.33;;;0.33;;
14040;SDS011;7095;51.388;6.196;2023-01-04T04:29:03;1.60;;;0.43;;
14040;SDS011;7095;51.388;6.196;2023-01-04T04:31:32;4.00;;;0.57;;
14040;SDS011;7095;51.388;6.196;2023-01-04T04:34:01;4.60;;;0.70;;
14040;SDS011;7095;51.388;6.196;2023-01-04T04:36:29;2.60;;;0.83;;
14040;SDS011;7095;51.388;6.196;2023-01-04T04:38:58;3.70;;;1.00;;
14040;SDS011;7095;51.388;6.196;2023-01-04T04:41:26;0.63;;;0.60;;
14040;SDS011;7095;51.388;6.196;2023-01-04T04:44:09;2.27;;;1.37;;
14040;SDS011;7095;51.388;6.196;2023-01-04T04:46:39;3.30;;;0.80;;
14040;SDS011;7095;51.388;6.196;2023-01-04T04:49:08;1.17;;;0.80;;
14040;SDS011;7095;51.388;6.196;2023-01-04T04:51:38;1.50;;;0.40;;
14040;SDS011;7095;51.388;6.196;2023-01-04T04:54:07;1.97;;;0.93;;
14040;SDS011;7095;51.388;6.196;2023-01-04T04:56:37;1.80;;;0.60;;
14040;SDS011;7095;51.388;6.196;2023-01-04T04:59:05;3.00;;;0.93;;
14040;SDS011;7095;51.388;6.196;2023-01-04T05:01:35;0.60;;;0.60;;
14040;SDS011;7095;51.388;6.196;2023-01-04T05:04:04;1.03;;;0.53;;
14040;SDS011;7095;51.388;6.196;2023-01-04T05:06:33;1.07;;;0.70;;
14040;SDS011;7095;51.388;6.196;2023-01-04T05:09:01;3.70;;;0.80;;
14040;SDS011;7095;51.388;6.196;2023-01-04T05:11:33;0.67;;;0.57;;
14040;SDS011;7095;51.388;6.196;2023-01-04T05:14:21;0.83;;;0.80;;
14040;SDS011;7095;51.388;6.196;2023-01-04T05:16:51;3.57;;;0.90;;
14040;SDS011;7095;51.388;6.196;2023-01-04T05:19:20;1.63;;;0.80;;
14040;SDS011;7095;51.388;6.196;2023-01-04T05:21:49;3.33;;;1.10;;
14040;SDS011;7095;51.388;6.196;2023-01-04T05:24:17;2.43;;;0.80;;
14040;SDS011;7095;51.388;6.196;2023-01-04T05:26:45;2.67;;;0.73;;
14040;SDS011;7095;51.388;6.196;2023-01-04T05:29:14;3.13;;;1.00;;
14040;SDS011;7095;51.388;6.196;2023-01-04T05:31:58;1.43;;;0.80;;
14040;SDS011;7095;51.388;6.196;2023-01-04T05:34:26;1.47;;;1.20;;
14040;SDS011;7095;51.388;6.196;2023-01-04T05:36:55;1.80;;;1.03;;
14040;SDS011;7095;51.388;6.196;2023-01-04T05:39:24;2.30;;;0.70;;
14040;SDS011;7095;51.388;6.196;2023-01-04T05:41:52;2.63;;;1.13;;
14040;SDS011;7095;51.388;6.196;2023-01-04T05:44:38;2.40;;;1.20;;
14040;SDS011;7095;51.388;6.196;2023-01-04T05:47:08;4.97;;;0.80;;
14040;SDS011;7095;51.388;6.196;2023-01-04T05:49:41;2.23;;;0.90;;
14040;SDS011;7095;51.388;6.196;2023-01-04T05:52:09;0.50;;;0.50;;
14040;SDS011;7095;51.388;6.196;2023-01-04T05:54:38;2.03;;;0.97;;
14040;SDS011;7095;51.388;6.196;2023-01-04T05:57:07;1.50;;;1.00;;
14040;SDS011;7095;51.388;6.196;2023-01-04T05:59:37;1.60;;;1.13;;
14040;SDS011;7095;51.388;6.196;2023-01-04T06:02:13;1.90;;;1.20;;
14040;SDS011;7095;51.388;6.196;2023-01-04T06:04:44;1.17;;;0.80;;
14040;SDS011;7095;51.388;6.196;2023-01-04T06:07:20;1.73;;;1.13;;
14040;SDS011;7095;51.388;6.196;2023-01-04T06:09:49;2.53;;;1.20;;
14040;SDS011;7095;51.388;6.196;2023-01-04T06:12:18;3.77;;;1.53;;
14040;SDS011;7095;51.388;6.196;2023-01-04T06:14:46;1.77;;;1.23;;
14040;SDS011;7095;51.388;6.196;2023-01-04T06:17:16;4.80;;;1.33;;
14040;SDS011;7095;51.388;6.196;2023-01-04T06:19:45;2.73;;;1.07;;
14040;SDS011;7095;51.388;6.196;2023-01-04T06:22:14;1.63;;;1.00;;
14040;SDS011;7095;51.388;6.196;2023-01-04T06:24:42;3.83;;;1.07;;
14040;SDS011;7095;51.388;6.196;2023-01-04T06:27:11;1.73;;;0.83;;
14040;SDS011;7095;51.388;6.196;2023-01-04T06:29:44;4.10;;;0.83;;
14040;SDS011;7095;51.388;6.196;2023-01-04T06:32:12;2.60;;;0.90;;
14040;SDS011;7095;51.388;6.196;2023-01-04T06:34:45;2.20;;;0.80;;
14040;SDS011;7095;51.388;6.196;2023-01-04T06:37:14;1.17;;;0.90;;
14040;SDS011;7095;51.388;6.196;2023-01-04T06:39:42;4.67;;;1.00;;
14040;SDS011;7095;51.388;6.196;2023-01-04T06:42:11;1.23;;;0.80;;
14040;SDS011;7095;51.388;6.196;2023-01-04T06:44:53;1.70;;;1.00;;
14040;SDS011;7095;51.388;6.196;2023-01-04T06:47:22;2.43;;;0.73;;
14040;SDS011;7095;51.388;6.196;2023-01-04T06:49:52;3.53;;;1.10;;
14040;SDS011;7095;51.388;6.196;2023-01-04T06:52:21;0.80;;;0.60;;
14040;SDS011;7095;51.388;6.196;2023-01-04T06:54:49;4.23;;;0.97;;
14040;SDS011;7095;51.388;6.196;2023-01-04T06:57:18;3.60;;;1.00;;
14040;SDS011;7095;51.388;6.196;2023-01-04T06:59:46;0.80;;;0.77;;
14040;SDS011;7095;51.388;6.196;2023-01-04T07:02:15;2.17;;;1.40;;
14040;SDS011;7095;51.388;6.196;2023-01-04T07:04:44;2.60;;;0.80;;
14040;SDS011;7095;51.388;6.196;2023-01-04T07:07:15;3.23;;;0.70;;
14040;SDS011;7095;51.388;6.196;2023-01-04T07:09:44;0.70;;;0.67;;
14040;SDS011;7095;51.388;6.196;2023-01-04T07:12:13;1.43;;;0.67;;
14040;SDS011;7095;51.388;6.196;2023-01-04T07:14:41;0.97;;;0.80;;
14040;SDS011;7095;51.388;6.196;2023-01-04T07:17:11;1.27;;;0.80;;
14040;SDS011;7095;51.388;6.196;2023-01-04T07:19:39;1.53;;;0.83;;
14040;SDS011;7095;51.388;6.196;2023-01-04T07:22:08;1.97;;;0.90;;
14040;SDS011;7095;51.388;6.196;2023-01-04T07:24:38;1.27;;;0.87;;
14040;SDS011;7095;51.388;6.196;2023-01-04T07:27:08;1.50;;;0.70;;
14040;SDS011;7095;51.388;6.196;2023-01-04T07:29:37;1.87;;;1.03;;
14040;SDS011;7095;51.388;6.196;2023-01-04T07:32:09;1.70;;;0.97;;
14040;SDS011;7095;51.388;6.196;2023-01-04T07:34:40;1.67;;;0.80;;
14040;SDS011;7095;51.388;6.196;2023-01-04T07:37:09;1.53;;;1.00;;
14040;SDS011;7095;51.388;6.196;2023-01-04T07:39:40;8.00;;;2.87;;
14040;SDS011;7095;51.388;6.196;2023-01-04T07:42:09;4.30;;;1.13;;
14040;SDS011;7095;51.388;6.196;2023-01-04T07:44:38;1.20;;;0.80;;
14040;SDS011;7095;51.388;6.196;2023-01-04T07:47:07;10.53;;;1.13;;
14040;SDS011;7095;51.388;6.196;2023-01-04T07:49:36;1.10;;;0.80;;
14040;SDS011;7095;51.388;6.196;2023-01-04T07:52:04;4.03;;;0.90;;
14040;SDS011;7095;51.388;6.196;2023-01-04T07:54:32;4.00;;;0.90;;
14040;SDS011;7095;51.388;6.196;2023-01-04T07:57:02;4.77;;;1.33;;
14040;SDS011;7095;51.388;6.196;2023-01-04T07:59:31;3.33;;;1.00;;
14040;SDS011;7095;51.388;6.196;2023-01-04T08:02:00;1.63;;;1.07;;
14040;SDS011;7095;51.388;6.196;2023-01-04T08:04:29;0.80;;;0.70;;
14040;SDS011;7095;51.388;6.196;2023-01-04T08:07:01;0.83;;;0.83;;
14040;SDS011;7095;51.388;6.196;2023-01-04T08:09:30;2.33;;;1.07;;
14040;SDS011;7095;51.388;6.196;2023-01-04T08:11:59;0.97;;;0.87;;
14040;SDS011;7095;51.388;6.196;2023-01-04T08:14:30;1.17;;;1.10;;
14040;SDS011;7095;51.388;6.196;2023-01-04T08:16:58;0.90;;;0.70;;
14040;SDS011;7095;51.388;6.196;2023-01-04T08:19:27;3.10;;;1.10;;
14040;SDS011;7095;51.388;6.196;2023-01-04T08:21:55;6.00;;;1.30;;
14040;SDS011;7095;51.388;6.196;2023-01-04T08:24:24;3.07;;;1.00;;
14040;SDS011;7095;51.388;6.196;2023-01-04T08:26:53;3.13;;;1.20;;
14040;SDS011;7095;51.388;6.196;2023-01-04T08:29:22;1.13;;;1.03;;
14040;SDS011;7095;51.388;6.196;2023-01-04T08:31:59;5.67;;;1.10;;
14040;SDS011;7095;51.388;6.196;2023-01-04T08:34:28;4.30;;;1.10;;
14040;SDS011;7095;51.388;6.196;2023-01-04T08:36:58;3.20;;;1.03;;
14040;SDS011;7095;51.388;6.196;2023-01-04T08:39:27;2.10;;;1.20;;
14040;SDS011;7095;51.388;6.196;2023-01-04T08:42:01;3.30;;;1.27;;
14040;SDS011;7095;51.388;6.196;2023-01-04T08:44:48;1.30;;;0.73;;
14040;SDS011;7095;51.388;6.196;2023-01-04T08:47:26;3.23;;;1.47;;
14040;SDS011;7095;51.388;6.196;2023-01-04T08:49:54;2.73;;;1.50;;
14040;SDS011;7095;51.388;6.196;2023-01-04T08:52:26;1.53;;;0.90;;
14040;SDS011;7095;51.388;6.196;2023-01-04T08:54:56;2.30;;;0.83;;
14040;SDS011;7095;51.388;6.196;2023-01-04T08:57:24;2.23;;;0.97;;
14040;SDS011;7095;51.388;6.196;2023-01-04T08:59:53;3.20;;;1.13;;
14040;SDS011;7095;51.388;6.196;2023-01-04T09:02:37;3.97;;;1.40;;
14040;SDS011;7095;51.388;6.196;2023-01-04T09:05:13;2.33;;;1.03;;
14040;SDS011;7095;51.388;6.196;2023-01-04T09:07:49;2.77;;;1.20;;
14040;SDS011;7095;51.388;6.196;2023-01-04T09:10:18;1.70;;;1.27;;
14040;SDS011;7095;51.388;6.196;2023-01-04T09:12:47;4.07;;;1.13;;
14040;SDS011;7095;51.388;6.196;2023-01-04T09:15:16;3.77;;;1.53;;
14040;SDS011;7095;51.388;6.196;2023-01-04T09:17:46;2.53;;;1.47;;
14040;SDS011;7095;51.388;6.196;2023-01-04T09:20:36;2.53;;;1.23;;
14040;SDS011;7095;51.388;6.196;2023-01-04T09:23:05;3.67;;;1.30;;
14040;SDS011;7095;51.388;6.196;2023-01-04T09:25:34;6.90;;;2.43;;
14040;SDS011;7095;51.388;6.196;2023-01-04T09:28:05;3.87;;;1.20;;
14040;SDS011;7095;51.388;6.196;2023-01-04T09:30:34;2.47;;;1.20;;
14040;SDS011;7095;51.388;6.196;2023-01-04T09:33:04;5.20;;;1.87;;
14040;SDS011;7095;51.388;6.196;2023-01-04T09:35:32;3.67;;;0.97;;
14040;SDS011;7095;51.388;6.196;2023-01-04T09:38:02;3.13;;;1.30;;
14040;SDS011;7095;51.388;6.196;2023-01-04T09:40:32;1.23;;;0.80;;
14040;SDS011;7095;51.388;6.196;2023-01-04T09:43:07;3.90;;;1.60;;
14040;SDS011;7095;51.388;6.196;2023-01-04T09:45:48;2.93;;;1.00;;
14040;SDS011;7095;51.388;6.196;2023-01-04T09:48:26;3.57;;;0.77;;
14040;SDS011;7095;51.388;6.196;2023-01-04T09:50:58;1.43;;;0.83;;
14040;SDS011;7095;51.388;6.196;2023-01-04T09:53:31;1.77;;;0.77;;
14040;SDS011;7095;51.388;6.196;2023-01-04T09:56:07;5.03;;;1.17;;
14040;SDS011;7095;51.388;6.196;2023-01-04T09:58:43;3.17;;;1.10;;
14040;SDS011;7095;51.388;6.196;2023-01-04T10:01:13;2.33;;;1.30;;
14040;SDS011;7095;51.388;6.196;2023-01-04T10:03:49;0.80;;;0.73;;
14040;SDS011;7095;51.388;6.196;2023-01-04T10:06:24;2.53;;;1.10;;
14040;SDS011;7095;51.388;6.196;2023-01-04T10:08:53;2.17;;;0.80;;
14040;SDS011;7095;51.388;6.196;2023-01-04T10:11:33;3.63;;;0.90;;
14040;SDS011;7095;51.388;6.196;2023-01-04T10:14:14;4.70;;;0.93;;
14040;SDS011;7095;51.388;6.196;2023-01-04T10:16:57;1.93;;;1.30;;
14040;SDS011;7095;51.388;6.196;2023-01-04T10:19:57;3.70;;;1.10;;
14040;SDS011;7095;51.388;6.196;2023-01-04T10:22:59;3.50;;;1.10;;
14040;SDS011;7095;51.388;6.196;2023-01-04T10:25:33;2.70;;;1.07;;
14040;SDS011;7095;51.388;6.196;2023-01-04T10:28:15;3.37;;;1.40;;
14040;SDS011;7095;51.388;6.196;2023-01-04T10:30:58;3.50;;;1.03;;
14040;SDS011;7095;51.388;6.196;2023-01-04T10:33:54;2.30;;;1.03;;
14040;SDS011;7095;51.388;6.196;2023-01-04T10:36:30;4.60;;;1.30;;
14040;SDS011;7095;51.388;6.196;2023-01-04T10:39:00;4.87;;;1.53;;
14040;SDS011;7095;51.388;6.196;2023-01-04T10:41:32;8.27;;;1.53;;
14040;SDS011;7095;51.388;6.196;2023-01-04T10:44:06;5.17;;;1.27;;
14040;SDS011;7095;51.388;6.196;2023-01-04T10:46:44;4.33;;;1.50;;
14040;SDS011;7095;51.388;6.196;2023-01-04T10:49:20;3.50;;;1.60;;
14040;SDS011;7095;51.388;6.196;2023-01-04T10:51:58;4.00;;;1.63;;
14040;SDS011;7095;51.388;6.196;2023-01-04T10:54:34;4.00;;;1.30;;
14040;SDS011;7095;51.388;6.196;2023-01-04T10:57:08;3.50;;;1.40;;
14040;SDS011;7095;51.388;6.196;2023-01-04T10:59:41;2.37;;;1.30;;
14040;SDS011;7095;51.388;6.196;2023-01-04T11:02:18;5.27;;;1.67;;
14040;SDS011;7095;51.388;6.196;2023-01-04T11:04:55;4.97;;;1.77;;
14040;SDS011;7095;51.388;6.196;2023-01-04T11:07:30;3.73;;;1.40;;
14040;SDS011;7095;51.388;6.196;2023-01-04T11:10:06;6.00;;;1.70;;
14040;SDS011;7095;51.388;6.196;2023-01-04T11:12:38;5.80;;;1.60;;
14040;SDS011;7095;51.388;6.196;2023-01-04T11:15:07;6.43;;;1.70;;
14040;SDS011;7095;51.388;6.196;2023-01-04T11:17:36;6.70;;;1.60;;
14040;SDS011;7095;51.388;6.196;2023-01-04T11:20:05;5.17;;;1.63;;
14040;SDS011;7095;51.388;6.196;2023-01-04T11:22:38;2.87;;;1.30;;
14040;SDS011;7095;51.388;6.196;2023-01-04T11:25:11;3.27;;;1.47;;
14040;SDS011;7095;51.388;6.196;2023-01-04T11:28:02;6.67;;;1.83;;
14040;SDS011;7095;51.388;6.196;2023-01-04T11:30:44;4.27;;;1.40;;
14040;SDS011;7095;51.388;6.196;2023-01-04T11:33:17;3.70;;;1.50;;
14040;SDS011;7095;51.388;6.196;2023-01-04T11:35:48;4.07;;;1.83;;
14040;SDS011;7095;51.388;6.196;2023-01-04T11:38:21;4.20;;;1.47;;
14040;SDS011;7095;51.388;6.196;2023-01-04T11:40:58;2.93;;;1.10;;
14040;SDS011;7095;51.388;6.196;2023-01-04T11:43:28;3.00;;;1.27;;
14040;SDS011;7095;51.388;6.196;2023-01-04T11:46:00;4.67;;;1.87;;
14040;SDS011;7095;51.388;6.196;2023-01-04T11:48:31;4.43;;;1.67;;
14040;SDS011;7095;51.388;6.196;2023-01-04T11:51:05;2.37;;;1.37;;
14040;SDS011;7095;51.388;6.196;2023-01-04T11:53:44;2.63;;;1.50;;
14040;SDS011;7095;51.388;6.196;2023-01-04T11:56:23;3.20;;;1.30;;
14040;SDS011;7095;51.388;6.196;2023-01-04T11:59:02;3.00;;;1.53;;
14040;SDS011;7095;51.388;6.196;2023-01-04T12:01:33;4.57;;;1.63;;
14040;SDS011;7095;51.388;6.196;2023-01-04T12:04:05;4.30;;;1.30;;
14040;SDS011;7095;51.388;6.196;2023-01-04T12:06:40;4.50;;;1.37;;
14040;SDS011;7095;51.388;6.196;2023-01-04T12:09:14;2.43;;;1.37;;
14040;SDS011;7095;51.388;6.196;2023-01-04T12:11:45;5.23;;;1.60;;
14040;SDS011;7095;51.388;6.196;2023-01-04T12:14:21;1.83;;;1.07;;
14040;SDS011;7095;51.388;6.196;2023-01-04T12:16:56;3.90;;;1.50;;
14040;SDS011;7095;51.388;6.196;2023-01-04T12:19:30;6.90;;;1.60;;
14040;SDS011;7095;51.388;6.196;2023-01-04T12:21:59;1.97;;;1.50;;
14040;SDS011;7095;51.388;6.196;2023-01-04T12:24:31;1.53;;;0.90;;
14040;SDS011;7095;51.388;6.196;2023-01-04T12:27:01;1.20;;;1.10;;
14040;SDS011;7095;51.388;6.196;2023-01-04T12:29:32;2.20;;;0.90;;
14040;SDS011;7095;51.388;6.196;2023-01-04T12:47:39;1.80;;;1.00;;
14040;SDS011;7095;51.388;6.196;2023-01-04T12:50:26;1.90;;;0.83;;
14040;SDS011;7095;51.388;6.196;2023-01-04T12:52:59;1.33;;;1.23;;
14040;SDS011;7095;51.388;6.196;2023-01-04T12:55:50;1.93;;;0.60;;
14040;SDS011;7095;51.388;6.196;2023-01-04T13:01:29;1.70;;;0.73;;
14040;SDS011;7095;51.388;6.196;2023-01-04T13:03:59;1.47;;;1.00;;
14040;SDS011;7095;51.388;6.196;2023-01-04T13:06:32;1.33;;;0.80;;
14040;SDS011;7095;51.388;6.196;2023-01-04T13:09:13;1.53;;;1.10;;
14040;SDS011;7095;51.388;6.196;2023-01-04T13:11:54;0.90;;;0.80;;
14040;SDS011;7095;51.388;6.196;2023-01-04T13:14:37;3.00;;;0.93;;
14040;SDS011;7095;51.388;6.196;2023-01-04T13:17:20;1.40;;;0.70;;
14040;SDS011;7095;51.388;6.196;2023-01-04T13:19:50;2.90;;;0.77;;
14040;SDS011;7095;51.388;6.196;2023-01-04T13:22:20;1.30;;;0.70;;
14040;SDS011;7095;51.388;6.196;2023-01-04T13:24:56;1.57;;;0.87;;
14040;SDS011;7095;51.388;6.196;2023-01-04T13:27:26;1.40;;;0.70;;
14040;SDS011;7095;51.388;6.196;2023-01-04T13:29:56;1.13;;;0.70;;
14040;SDS011;7095;51.388;6.196;2023-01-04T13:32:25;1.50;;;0.70;;
14040;SDS011;7095;51.388;6.196;2023-01-04T13:34:56;4.93;;;1.20;;
14040;SDS011;7095;51.388;6.196;2023-01-04T13:37:41;2.03;;;0.93;;
14040;SDS011;7095;51.388;6.196;2023-01-04T13:40:19;0.90;;;0.80;;
14040;SDS011;7095;51.388;6.196;2023-01-04T13:42:54;1.83;;;1.00;;
14040;SDS011;7095;51.388;6.196;2023-01-04T13:45:49;1.83;;;1.23;;
14040;SDS011;7095;51.388;6.196;2023-01-04T13:48:34;1.53;;;0.83;;
14040;SDS011;7095;51.388;6.196;2023-01-04T13:51:10;2.17;;;0.97;;
14040;SDS011;7095;51.388;6.196;2023-01-04T13:53:41;1.17;;;1.00;;
14040;SDS011;7095;51.388;6.196;2023-01-04T13:56:18;1.23;;;0.97;;
14040;SDS011;7095;51.388;6.196;2023-01-04T13:58:49;1.20;;;1.10;;
14040;SDS011;7095;51.388;6.196;2023-01-04T14:01:20;4.70;;;1.40;;
14040;SDS011;7095;51.388;6.196;2023-01-04T14:03:52;1.77;;;1.33;;
14040;SDS011;7095;51.388;6.196;2023-01-04T14:06:24;1.60;;;0.97;;
14040;SDS011;7095;51.388;6.196;2023-01-04T14:08:59;2.73;;;1.60;;
14040;SDS011;7095;51.388;6.196;2023-01-04T14:11:33;3.67;;;1.40;;
14040;SDS011;7095;51.388;6.196;2023-01-04T14:14:47;1.67;;;0.83;;
14040;SDS011;7095;51.388;6.196;2023-01-04T14:17:24;3.10;;;1.30;;
14040;SDS011;7095;51.388;6.196;2023-01-04T14:19:58;0.90;;;0.80;;
14040;SDS011;7095;51.388;6.196;2023-01-04T14:22:34;1.20;;;1.00;;
14040;SDS011;7095;51.388;6.196;2023-01-04T14:31:26;2.07;;;0.90;;
14040;SDS011;7095;51.388;6.196;2023-01-04T14:34:02;0.70;;;0.67;;
14040;SDS011;7095;51.388;6.196;2023-01-04T14:36:39;2.63;;;0.93;;
14040;SDS011;7095;51.388;6.196;2023-01-04T14:39:20;1.83;;;0.97;;
14040;SDS011;7095;51.388;6.196;2023-01-04T14:41:56;3.07;;;1.00;;
14040;SDS011;7095;51.388;6.196;2023-01-04T14:44:27;1.13;;;1.03;;
14040;SDS011;7095;51.388;6.196;2023-01-04T14:46:58;2.63;;;0.90;;
14040;SDS011;7095;51.388;6.196;2023-01-04T14:49:31;1.83;;;1.33;;
14040;SDS011;7095;51.388;6.196;2023-01-04T14:52:00;3.30;;;0.90;;
14040;SDS011;7095;51.388;6.196;2023-01-04T14:54:31;1.80;;;1.10;;
14040;SDS011;7095;51.388;6.196;2023-01-04T14:57:01;1.50;;;1.00;;
14040;SDS011;7095;51.388;6.196;2023-01-04T14:59:30;1.37;;;0.90;;
14040;SDS011;7095;51.388;6.196;2023-01-04T15:01:59;2.57;;;1.07;;
14040;SDS011;7095;51.388;6.196;2023-01-04T15:04:28;1.70;;;1.00;;
14040;SDS011;7095;51.388;6.196;2023-01-04T15:06:59;0.63;;;0.60;;
14040;SDS011;7095;51.388;6.196;2023-01-04T15:09:28;5.17;;;1.87;;
14040;SDS011;7095;51.388;6.196;2023-01-04T15:11:57;1.50;;;0.87;;
14040;SDS011;7095;51.388;6.196;2023-01-04T15:14:26;3.80;;;1.60;;
14040;SDS011;7095;51.388;6.196;2023-01-04T15:16:55;5.93;;;2.60;;
14040;SDS011;7095;51.388;6.196;2023-01-04T15:19:23;2.10;;;1.03;;
14040;SDS011;7095;51.388;6.196;2023-01-04T15:21:52;5.17;;;2.37;;
14040;SDS011;7095;51.388;6.196;2023-01-04T15:24:22;4.83;;;1.27;;
14040;SDS011;7095;51.388;6.196;2023-01-04T15:26:51;3.93;;;1.63;;
14040;SDS011;7095;51.388;6.196;2023-01-04T15:29:19;4.67;;;1.50;;
14040;SDS011;7095;51.388;6.196;2023-01-04T15:31:48;3.67;;;1.50;;
14040;SDS011;7095;51.388;6.196;2023-01-04T15:34:17;5.53;;;1.40;;
14040;SDS011;7095;51.388;6.196;2023-01-04T15:36:50;4.13;;;1.70;;
14040;SDS011;7095;51.388;6.196;2023-01-04T15:39:19;8.53;;;2.40;;
14040;SDS011;7095;51.388;6.196;2023-01-04T15:41:52;15.53;;;2.57;;
14040;SDS011;7095;51.388;6.196;2023-01-04T15:44:39;7.57;;;2.37;;
14040;SDS011;7095;51.388;6.196;2023-01-04T15:47:07;9.00;;;2.50;;
14040;SDS011;7095;51.388;6.196;2023-01-04T15:49:36;5.63;;;2.43;;
14040;SDS011;7095;51.388;6.196;2023-01-04T15:52:05;7.67;;;2.23;;
14040;SDS011;7095;51.388;6.196;2023-01-04T15:54:33;7.03;;;2.00;;
14040;SDS011;7095;51.388;6.196;2023-01-04T15:57:03;10.53;;;2.00;;
14040;SDS011;7095;51.388;6.196;2023-01-04T15:59:32;8.50;;;2.63;;
14040;SDS011;7095;51.388;6.196;2023-01-04T16:02:01;6.60;;;2.03;;
14040;SDS011;7095;51.388;6.196;2023-01-04T16:04:30;6.37;;;1.60;;